Ottumwa Regional Airport Ottumwa US
ICAO: KOTM
IATA: OTM
Category: Medium
Scheduled Services: No

Elevation: 845 ft
TransAlt. 18000 ft.

Airport Communications:
ASOS:124.175
CHICAGO CNTR:118.15
FORT DODGE RDO:122.4
CTAF/UNICOM:123

KOTM Zoom In..

Runways:

(A) RW 04 length 4600 ft width 100 ft
---- / hdg 42

(B) RW 13 length 5885 ft width 150 ft
---- / hdg 132

(C) RW 22 length 4600 ft width 100 ft
---- / hdg 222

(D) RW 31 length 5885 ft width 150 ft
ILS 109.50 / hdg 312

Location; KOTM
Day. 23 / Time. 21.53 Zulu
* Altimeter: 30.14
* Temperature: -02° c. -28.4°f.
* Wind from: 310° Speed 14 kn.
Dewpoint: -07° c.
Visibility: 10 Statute Miles.
Clouds: Overcast 2000 ft.

KOTM 232153Z AUTO 31014KT 10SM OVC020 M02/M07 A3014 RMK AO2 SLP216 T10171067


Wind From 310°
Speed 14 kn.

YouTube Music Video
 
jpsmedia.com for Web Design  worldairports.se 2018   terms of use